Time;durP1;ratioP1;P1;durP2;ratioP2;P2;SDS_P1;SDS_P2;PMS_P1;PMS_P2;Temp;Humidity;BMP_temperature;BMP_pressure;BME280_temperature;BME280_humidity;BME280_pressure;Samples;Min_cycle;Max_cycle;Signal;HPM_P1;HPM_P2
2021/04/26 00:01:53;;;;;;;5.55;1.63;;;;;;;;;;5026933;28;20080;-70
2021/04/26 00:04:19;;;;;;;3.60;1.48;;;;;;;;;;5023596;28;20079;-70
2021/04/26 00:06:45;;;;;;;5.53;1.60;;;;;;;;;;5021305;28;20033;-70
2021/04/26 00:09:11;;;;;;;6.95;1.40;;;;;;;;;;5026721;28;20041;-70
2021/04/26 00:11:37;;;;;;;6.63;1.55;;;;;;;;;;5019450;28;20037;-70
2021/04/26 00:14:04;;;;;;;5.18;1.92;;;;;;;;;;5024633;28;20502;-70
2021/04/26 00:16:30;;;;;;;6.03;1.50;;;;;;;;;;5025025;28;20034;-70
2021/04/26 00:18:56;;;;;;;7.90;1.60;;;;;;;;;;5020007;28;20025;-70
2021/04/26 00:21:22;;;;;;;3.60;1.50;;;;;;;;;;5026798;28;20021;-70
2021/04/26 00:23:48;;;;;;;6.00;2.28;;;;;;;;;;5026529;28;20086;-69
2021/04/26 00:26:14;;;;;;;5.15;1.70;;;;;;;;;;5027006;28;20139;-70
2021/04/26 00:28:40;;;;;;;4.05;1.10;;;;;;;;;;5030053;28;20033;-70
2021/04/26 00:31:06;;;;;;;6.95;1.88;;;;;;;;;;5031436;28;20044;-70
2021/04/26 00:33:32;;;;;;;4.57;1.67;;;;;;;;;;5024182;28;20036;-70
2021/04/26 00:35:58;;;;;;;6.75;1.90;;;;;;;;;;5025625;28;20487;-70
2021/04/26 00:38:24;;;;;;;5.35;1.80;;;;;;;;;;5025415;28;20079;-70
2021/04/26 00:40:50;;;;;;;6.25;1.85;;;;;;;;;;5031016;28;20031;-70
2021/04/26 00:43:16;;;;;;;8.27;1.50;;;;;;;;;;5027423;28;20104;-70
2021/04/26 00:45:42;;;;;;;7.38;1.77;;;;;;;;;;5029943;28;20030;-70
2021/04/26 00:48:08;;;;;;;4.97;1.75;;;;;;;;;;5019781;28;20092;-70
2021/04/26 00:50:34;;;;;;;6.00;1.30;;;;;;;;;;5025954;28;20368;-70
2021/04/26 00:53:03;;;;;;;5.15;1.67;;;;;;;;;;5025574;28;20056;-70
2021/04/26 00:55:31;;;;;;;3.88;1.63;;;;;;;;;;5030126;28;20097;-70
2021/04/26 00:57:58;;;;;;;9.13;2.28;;;;;;;;;;5029059;28;20032;-69
2021/04/26 01:00:24;;;;;;;5.65;1.70;;;;;;;;;;5024835;28;20018;-70
2021/04/26 01:02:50;;;;;;;4.65;1.75;;;;;;;;;;5024333;28;20385;-70
2021/04/26 01:05:21;;;;;;;7.93;1.42;;;;;;;;;;5021053;28;20033;-70
2021/04/26 01:07:47;;;;;;;6.72;2.10;;;;;;;;;;5025669;28;20033;-70
2021/04/26 01:10:14;;;;;;;6.53;1.90;;;;;;;;;;5028518;28;20025;-70
2021/04/26 01:12:59;;;;;;;4.72;2.17;;;;;;;;;;5029587;28;20087;-70
2021/04/26 01:15:27;;;;;;;7.50;1.65;;;;;;;;;;5023645;28;20021;-70
2021/04/26 01:17:59;;;;;;;6.70;2.05;;;;;;;;;;5038274;28;20053;-70
2021/04/26 01:20:40;;;;;;;4.32;1.60;;;;;;;;;;5031040;28;20041;-70
2021/04/26 01:23:26;;;;;;;8.48;2.25;;;;;;;;;;5049885;28;20056;-71
2021/04/26 01:25:52;;;;;;;10.10;2.60;;;;;;;;;;5048065;28;20037;-71
2021/04/26 01:28:21;;;;;;;5.30;2.35;;;;;;;;;;5046263;28;20037;-71
2021/04/26 01:30:59;;;;;;;5.78;1.90;;;;;;;;;;5055829;28;20036;-70
2021/04/26 01:33:27;;;;;;;8.60;2.40;;;;;;;;;;5046817;28;20028;-73
2021/04/26 01:35:54;;;;;;;9.98;3.15;;;;;;;;;;5048399;28;20021;-70
2021/04/26 01:38:28;;;;;;;4.85;2.85;;;;;;;;;;5043515;28;20021;-70
2021/04/26 01:40:57;;;;;;;7.82;2.40;;;;;;;;;;5060905;28;20021;-73
2021/04/26 01:43:25;;;;;;;9.65;2.20;;;;;;;;;;5027822;28;20091;-71
2021/04/26 01:45:53;;;;;;;6.53;2.08;;;;;;;;;;5031412;28;20402;-70
2021/04/26 01:48:19;;;;;;;3.80;2.20;;;;;;;;;;5039061;28;20036;-71
2021/04/26 01:50:46;;;;;;;14.02;3.33;;;;;;;;;;5028082;28;20057;-70
2021/04/26 01:53:11;;;;;;;13.18;2.25;;;;;;;;;;5022684;28;20069;-73
2021/04/26 01:55:38;;;;;;;8.20;2.10;;;;;;;;;;5035157;28;20114;-70
2021/04/26 01:58:04;;;;;;;11.32;2.20;;;;;;;;;;5028418;28;20041;-71
2021/04/26 02:00:31;;;;;;;5.40;2.65;;;;;;;;;;5029849;28;20030;-70
2021/04/26 02:02:58;;;;;;;7.68;2.88;;;;;;;;;;5052819;28;20036;-74
2021/04/26 02:05:25;;;;;;;10.38;2.75;;;;;;;;;;5057456;28;20025;-71
2021/04/26 02:07:51;;;;;;;8.63;2.80;;;;;;;;;;5036354;28;20037;-70
2021/04/26 02:10:18;;;;;;;7.03;2.85;;;;;;;;;;5035956;28;20483;-70
2021/04/26 02:12:45;;;;;;;5.85;2.22;;;;;;;;;;5038091;28;20079;-70
2021/04/26 02:15:13;;;;;;;9.23;2.95;;;;;;;;;;5019928;28;20096;-70
2021/04/26 02:17:40;;;;;;;8.07;2.05;;;;;;;;;;5022212;28;20042;-71
2021/04/26 02:20:07;;;;;;;8.25;2.38;;;;;;;;;;5031246;28;20467;-70
2021/04/26 02:22:33;;;;;;;7.10;2.58;;;;;;;;;;5027360;28;20104;-70
2021/04/26 02:24:59;;;;;;;6.63;2.17;;;;;;;;;;5027876;28;20837;-70
2021/04/26 02:27:25;;;;;;;8.35;2.30;;;;;;;;;;5037545;28;20432;-69
2021/04/26 02:29:51;;;;;;;6.38;2.30;;;;;;;;;;5028444;28;20022;-71
2021/04/26 02:32:21;;;;;;;9.10;2.75;;;;;;;;;;5043160;28;20070;-70
2021/04/26 02:34:50;;;;;;;5.70;2.40;;;;;;;;;;5032551;28;20033;-70
2021/04/26 02:37:34;;;;;;;7.32;2.05;;;;;;;;;;5029457;28;20037;-69
2021/04/26 02:40:05;;;;;;;6.95;2.22;;;;;;;;;;5035940;28;20045;-69
2021/04/26 02:42:33;;;;;;;7.85;3.80;;;;;;;;;;5034537;28;20117;-70
2021/04/26 02:44:59;;;;;;;6.32;2.55;;;;;;;;;;5032607;28;20033;-71
2021/04/26 02:47:26;;;;;;;47.85;4.35;;;;;;;;;;5027070;28;20446;-70
2021/04/26 02:49:53;;;;;;;7.93;2.50;;;;;;;;;;5023852;28;20807;-69
2021/04/26 02:52:19;;;;;;;8.85;3.08;;;;;;;;;;5039359;28;20071;-70
2021/04/26 02:54:45;;;;;;;6.20;3.13;;;;;;;;;;5030995;28;20053;-69
2021/04/26 02:57:11;;;;;;;7.70;3.13;;;;;;;;;;5037771;28;20030;-71
2021/04/26 02:59:38;;;;;;;11.13;3.47;;;;;;;;;;5045487;28;20021;-71
2021/04/26 03:02:05;;;;;;;7.55;2.83;;;;;;;;;;5037875;28;20033;-70
2021/04/26 03:04:31;;;;;;;10.30;3.22;;;;;;;;;;5037827;28;20029;-69
2021/04/26 03:06:58;;;;;;;7.35;2.72;;;;;;;;;;5034769;28;20094;-70
2021/04/26 03:09:24;;;;;;;8.30;3.88;;;;;;;;;;5023469;28;20025;-70
2021/04/26 03:11:52;;;;;;;12.23;3.63;;;;;;;;;;5033976;28;20029;-70
2021/04/26 03:14:18;;;;;;;8.50;2.83;;;;;;;;;;5028914;28;20033;-71
2021/04/26 03:16:44;;;;;;;8.43;2.58;;;;;;;;;;5031341;28;20034;-70
2021/04/26 03:19:11;;;;;;;10.27;3.53;;;;;;;;;;5038557;28;20089;-70
2021/04/26 03:21:37;;;;;;;7.50;3.08;;;;;;;;;;5032753;28;20017;-70
2021/04/26 03:24:03;;;;;;;9.80;3.30;;;;;;;;;;5031249;28;20475;-71
2021/04/26 03:26:33;;;;;;;7.85;3.10;;;;;;;;;;5027745;28;20026;-70
2021/04/26 03:29:00;;;;;;;6.30;3.08;;;;;;;;;;5019853;28;20030;-70
2021/04/26 03:31:27;;;;;;;7.65;2.60;;;;;;;;;;5031138;28;20547;-69
2021/04/26 03:33:53;;;;;;;7.53;3.08;;;;;;;;;;5017139;28;20104;-70
2021/04/26 03:36:21;;;;;;;11.77;2.88;;;;;;;;;;5029227;28;20051;-69
2021/04/26 03:38:49;;;;;;;5.40;2.30;;;;;;;;;;5021062;28;20096;-70
2021/04/26 03:41:15;;;;;;;11.32;2.55;;;;;;;;;;5026164;28;20021;-70
2021/04/26 03:43:45;;;;;;;7.03;3.45;;;;;;;;;;5021807;28;20045;-70
2021/04/26 03:46:11;;;;;;;4.28;2.83;;;;;;;;;;5017256;28;20030;-70
2021/04/26 03:48:37;;;;;;;10.38;3.03;;;;;;;;;;5027391;28;20052;-70
2021/04/26 03:51:03;;;;;;;5.65;3.30;;;;;;;;;;5019303;28;20030;-70
2021/04/26 03:53:28;;;;;;;8.77;3.22;;;;;;;;;;5022822;28;20029;-70
2021/04/26 03:55:54;;;;;;;5.25;3.08;;;;;;;;;;5021270;28;20808;-70
2021/04/26 03:58:20;;;;;;;7.68;2.70;;;;;;;;;;5027442;28;20061;-70
2021/04/26 04:00:46;;;;;;;7.60;3.25;;;;;;;;;;5030877;28;20022;-70
2021/04/26 04:03:15;;;;;;;7.10;2.40;;;;;;;;;;5019683;28;20028;-70
2021/04/26 04:05:42;;;;;;;13.73;3.40;;;;;;;;;;5026525;28;20044;-70
2021/04/26 04:08:08;;;;;;;11.32;3.28;;;;;;;;;;5026524;28;20386;-70
2021/04/26 04:10:35;;;;;;;9.63;3.08;;;;;;;;;;5027476;28;20099;-70
2021/04/26 04:13:01;;;;;;;7.82;3.35;;;;;;;;;;5030266;28;20528;-70
2021/04/26 04:15:28;;;;;;;6.13;2.28;;;;;;;;;;5028781;28;20029;-70
2021/04/26 04:17:53;;;;;;;6.25;2.72;;;;;;;;;;5031318;28;20026;-70
2021/04/26 04:20:19;;;;;;;7.32;2.95;;;;;;;;;;5030642;28;20017;-70
2021/04/26 04:22:45;;;;;;;8.98;3.70;;;;;;;;;;5029652;28;20123;-70
2021/04/26 04:25:12;;;;;;;12.50;3.38;;;;;;;;;;5041191;28;20577;-70
2021/04/26 04:27:39;;;;;;;6.55;2.92;;;;;;;;;;5028722;28;20045;-70
2021/04/26 04:30:06;;;;;;;9.43;3.15;;;;;;;;;;5028298;28;20823;-70
2021/04/26 04:32:32;;;;;;;5.25;3.20;;;;;;;;;;5028468;28;20033;-70
2021/04/26 04:34:58;;;;;;;8.05;2.85;;;;;;;;;;5019056;28;20076;-70
2021/04/26 04:37:24;;;;;;;7.45;3.03;;;;;;;;;;5025216;28;20026;-70
2021/04/26 04:39:50;;;;;;;8.02;2.80;;;;;;;;;;5026023;28;20024;-69
2021/04/26 04:42:16;;;;;;;13.00;4.47;;;;;;;;;;5020693;28;20029;-70
2021/04/26 04:44:42;;;;;;;8.63;2.85;;;;;;;;;;5014574;28;20112;-70
2021/04/26 04:47:08;;;;;;;11.65;3.05;;;;;;;;;;5011703;28;20025;-70
2021/04/26 04:49:34;;;;;;;11.55;3.10;;;;;;;;;;5009705;28;20368;-69
2021/04/26 04:52:00;;;;;;;6.95;2.80;;;;;;;;;;5014172;28;20030;-70
2021/04/26 04:54:26;;;;;;;7.95;3.10;;;;;;;;;;5016404;28;20506;-70
2021/04/26 04:56:53;;;;;;;5.88;2.70;;;;;;;;;;5014114;28;20032;-70
2021/04/26 04:59:19;;;;;;;9.90;3.22;;;;;;;;;;5032664;28;20057;-69
2021/04/26 05:01:46;;;;;;;10.73;2.72;;;;;;;;;;5029877;28;20018;-69
2021/04/26 05:04:12;;;;;;;9.57;3.30;;;;;;;;;;5041312;28;20033;-69
2021/04/26 05:06:38;;;;;;;8.32;2.90;;;;;;;;;;5022792;28;20493;-70
2021/04/26 05:09:05;;;;;;;10.07;2.55;;;;;;;;;;5011022;28;20029;-70
2021/04/26 05:11:31;;;;;;;8.43;2.38;;;;;;;;;;5019831;28;20030;-70
2021/04/26 05:13:57;;;;;;;15.38;4.20;;;;;;;;;;5012968;28;20052;-70
2021/04/26 05:16:25;;;;;;;8.43;3.53;;;;;;;;;;5023008;28;20030;-70
2021/04/26 05:18:51;;;;;;;14.57;2.85;;;;;;;;;;5011999;28;20102;-70
2021/04/26 05:21:17;;;;;;;10.95;3.78;;;;;;;;;;5013224;28;20110;-70
2021/04/26 05:23:43;;;;;;;11.57;3.17;;;;;;;;;;5011505;28;20612;-70
2021/04/26 05:26:09;;;;;;;7.05;1.60;;;;;;;;;;5019210;28;20025;-70
2021/04/26 05:28:35;;;;;;;4.28;2.55;;;;;;;;;;5024677;28;20636;-70
2021/04/26 05:31:01;;;;;;;8.80;2.42;;;;;;;;;;5025205;28;20049;-70
2021/04/26 05:33:27;;;;;;;8.77;2.63;;;;;;;;;;5022695;28;20029;-70
2021/04/26 05:35:53;;;;;;;7.65;2.25;;;;;;;;;;5021418;28;20026;-70
2021/04/26 05:38:19;;;;;;;6.10;2.33;;;;;;;;;;5023634;28;20030;-70
2021/04/26 05:40:48;;;;;;;5.80;2.10;;;;;;;;;;5028508;28;20028;-70
2021/04/26 05:43:14;;;;;;;7.57;1.88;;;;;;;;;;5024587;28;20025;-70
2021/04/26 05:45:40;;;;;;;6.05;2.42;;;;;;;;;;5029914;28;20511;-70
2021/04/26 05:48:07;;;;;;;8.68;2.33;;;;;;;;;;5023276;28;20045;-70
2021/04/26 05:50:33;;;;;;;5.68;1.65;;;;;;;;;;5029466;28;20056;-70
2021/04/26 05:52:59;;;;;;;7.15;1.52;;;;;;;;;;5026898;28;20387;-70
2021/04/26 05:55:25;;;;;;;6.10;2.25;;;;;;;;;;5020191;28;20030;-70
2021/04/26 05:57:51;;;;;;;4.28;1.85;;;;;;;;;;5018773;28;20523;-70
2021/04/26 06:00:18;;;;;;;11.95;1.75;;;;;;;;;;5015261;28;20029;-70
2021/04/26 06:02:44;;;;;;;6.40;1.92;;;;;;;;;;5017447;28;20018;-70
2021/04/26 06:05:10;;;;;;;4.88;1.40;;;;;;;;;;5015178;28;20036;-71
2021/04/26 06:07:36;;;;;;;4.28;1.35;;;;;;;;;;5012888;28;20483;-70
2021/04/26 06:10:03;;;;;;;6.68;2.00;;;;;;;;;;5016670;28;20029;-68
2021/04/26 06:12:29;;;;;;;6.47;1.65;;;;;;;;;;5021253;28;20031;-68
2021/04/26 06:14:55;;;;;;;6.82;1.60;;;;;;;;;;5016799;28;20033;-68
2021/04/26 06:17:21;;;;;;;7.95;1.65;;;;;;;;;;5017819;28;20028;-68
2021/04/26 06:19:47;;;;;;;5.30;1.40;;;;;;;;;;5022645;28;20029;-68
2021/04/26 06:22:13;;;;;;;5.53;1.60;;;;;;;;;;5012851;28;20459;-68
2021/04/26 06:24:39;;;;;;;4.40;1.30;;;;;;;;;;5014747;28;20064;-68
2021/04/26 06:27:05;;;;;;;6.65;1.35;;;;;;;;;;5017575;28;20061;-68
2021/04/26 06:29:31;;;;;;;5.95;1.20;;;;;;;;;;5010493;28;20034;-70
2021/04/26 06:31:57;;;;;;;3.72;1.27;;;;;;;;;;5014587;28;20434;-69
2021/04/26 06:34:23;;;;;;;5.70;1.20;;;;;;;;;;5019696;28;20033;-70
2021/04/26 06:36:49;;;;;;;6.95;1.27;;;;;;;;;;5019509;28;20454;-70
2021/04/26 06:39:15;;;;;;;6.55;1.35;;;;;;;;;;5019868;28;20198;-70
2021/04/26 06:41:41;;;;;;;5.13;1.10;;;;;;;;;;5018309;28;20446;-70
2021/04/26 06:44:07;;;;;;;10.48;1.23;;;;;;;;;;5025390;28;20033;-70
2021/04/26 06:46:33;;;;;;;3.88;1.00;;;;;;;;;;5023062;28;20036;-71
2021/04/26 06:48:59;;;;;;;4.28;1.40;;;;;;;;;;5023255;28;20036;-71
2021/04/26 06:51:26;;;;;;;6.28;1.42;;;;;;;;;;5021829;28;20021;-70
2021/04/26 06:53:52;;;;;;;5.70;2.10;;;;;;;;;;5018040;28;20032;-70
2021/04/26 06:56:18;;;;;;;7.38;1.45;;;;;;;;;;5018762;28;20108;-70
2021/04/26 06:58:44;;;;;;;8.73;1.73;;;;;;;;;;5020411;28;20181;-70
2021/04/26 07:01:10;;;;;;;5.18;1.10;;;;;;;;;;5024982;28;20120;-70
2021/04/26 07:03:36;;;;;;;7.55;1.08;;;;;;;;;;5014052;28;20103;-70
2021/04/26 07:06:02;;;;;;;7.90;1.52;;;;;;;;;;5010868;28;20033;-70
2021/04/26 07:08:28;;;;;;;6.93;1.30;;;;;;;;;;5013299;28;20470;-70
2021/04/26 07:10:54;;;;;;;2.22;0.80;;;;;;;;;;5009186;28;20026;-71
2021/04/26 07:13:20;;;;;;;5.45;1.30;;;;;;;;;;5006657;28;20033;-70
2021/04/26 07:15:46;;;;;;;5.78;1.70;;;;;;;;;;5014093;28;20360;-70
2021/04/26 07:18:12;;;;;;;5.85;1.23;;;;;;;;;;5010559;28;20030;-69
2021/04/26 07:20:38;;;;;;;2.70;1.25;;;;;;;;;;5020101;28;20388;-71
2021/04/26 07:23:04;;;;;;;7.53;1.25;;;;;;;;;;5022537;28;20041;-70
2021/04/26 07:25:31;;;;;;;6.88;1.20;;;;;;;;;;5023060;28;20348;-71
2021/04/26 07:27:57;;;;;;;4.75;1.13;;;;;;;;;;5020690;28;20562;-70
2021/04/26 07:30:23;;;;;;;5.82;1.35;;;;;;;;;;5013879;28;20129;-70
2021/04/26 07:32:49;;;;;;;3.92;0.85;;;;;;;;;;5011051;28;20125;-70
2021/04/26 07:35:15;;;;;;;5.38;0.90;;;;;;;;;;5011534;28;20456;-70
2021/04/26 07:37:42;;;;;;;5.43;0.80;;;;;;;;;;5012546;28;20022;-70
2021/04/26 07:40:09;;;;;;;4.95;1.15;;;;;;;;;;5010343;28;20030;-70
2021/04/26 07:42:35;;;;;;;5.70;1.15;;;;;;;;;;5011104;28;20068;-71
2021/04/26 07:45:01;;;;;;;4.85;0.80;;;;;;;;;;5017948;28;20111;-70
2021/04/26 07:47:27;;;;;;;3.78;0.80;;;;;;;;;;5016708;28;20022;-71
2021/04/26 07:49:53;;;;;;;3.00;1.00;;;;;;;;;;5011310;28;20462;-70
2021/04/26 07:52:19;;;;;;;6.88;1.05;;;;;;;;;;5013741;28;20026;-70
2021/04/26 07:54:45;;;;;;;4.15;0.88;;;;;;;;;;5023209;28;20033;-72
2021/04/26 07:57:11;;;;;;;5.72;0.95;;;;;;;;;;5016537;28;20030;-72
2021/04/26 07:59:37;;;;;;;3.88;1.20;;;;;;;;;;5024362;28;20057;-72
2021/04/26 08:02:03;;;;;;;3.10;1.10;;;;;;;;;;5029530;28;20037;-72
2021/04/26 08:04:29;;;;;;;4.32;1.15;;;;;;;;;;5028478;28;20040;-72
2021/04/26 08:06:55;;;;;;;4.47;1.27;;;;;;;;;;5027013;28;20033;-71
2021/04/26 08:09:21;;;;;;;4.47;0.82;;;;;;;;;;5033228;28;20622;-72
2021/04/26 08:11:47;;;;;;;3.72;1.02;;;;;;;;;;5030286;28;20056;-72
2021/04/26 08:14:13;;;;;;;4.28;1.23;;;;;;;;;;5028369;28;20021;-72
2021/04/26 08:16:40;;;;;;;1.85;0.60;;;;;;;;;;5035970;28;20078;-72
2021/04/26 08:19:06;;;;;;;5.80;0.93;;;;;;;;;;5032992;28;20176;-72
2021/04/26 08:21:32;;;;;;;7.63;0.90;;;;;;;;;;5026755;28;20025;-72
2021/04/26 08:23:58;;;;;;;3.10;0.82;;;;;;;;;;5034697;28;20609;-72
2021/04/26 08:26:25;;;;;;;4.07;0.75;;;;;;;;;;5032341;28;20033;-72
2021/04/26 08:28:51;;;;;;;2.75;0.93;;;;;;;;;;5025978;28;20059;-71
2021/04/26 08:31:17;;;;;;;3.67;1.13;;;;;;;;;;5024064;28;20042;-70
2021/04/26 08:33:44;;;;;;;5.60;1.05;;;;;;;;;;5030143;28;20037;-69
2021/04/26 08:36:10;;;;;;;3.85;0.90;;;;;;;;;;5023454;28;20026;-70
2021/04/26 08:38:36;;;;;;;3.22;0.80;;;;;;;;;;5018450;28;20052;-71
2021/04/26 08:41:03;;;;;;;3.17;1.13;;;;;;;;;;5026910;28;20092;-70
2021/04/26 08:43:29;;;;;;;9.85;1.48;;;;;;;;;;5029666;28;20029;-71
2021/04/26 08:45:58;;;;;;;3.47;0.80;;;;;;;;;;5027954;28;20053;-71
2021/04/26 08:48:24;;;;;;;2.85;0.80;;;;;;;;;;5026211;28;20029;-71
2021/04/26 08:50:50;;;;;;;3.83;0.82;;;;;;;;;;5028926;28;20028;-71
2021/04/26 08:53:16;;;;;;;3.70;0.75;;;;;;;;;;5028654;28;20116;-71
2021/04/26 08:55:42;;;;;;;3.05;0.85;;;;;;;;;;5024715;28;20032;-71
2021/04/26 08:58:08;;;;;;;3.53;0.73;;;;;;;;;;5029382;28;20025;-71
2021/04/26 09:00:34;;;;;;;5.28;0.68;;;;;;;;;;5024777;28;20373;-71
2021/04/26 09:03:01;;;;;;;2.40;0.43;;;;;;;;;;5024386;28;20029;-71
2021/04/26 09:05:28;;;;;;;3.40;0.80;;;;;;;;;;5026085;28;20383;-72
2021/04/26 09:07:56;;;;;;;5.18;1.10;;;;;;;;;;5028633;28;20022;-71
2021/04/26 09:10:40;;;;;;;5.20;1.33;;;;;;;;;;5029342;28;20026;-69
2021/04/26 09:13:22;;;;;;;2.72;0.70;;;;;;;;;;5023475;28;20434;-69
2021/04/26 09:15:55;;;;;;;3.78;0.77;;;;;;;;;;5038355;28;20046;-69
2021/04/26 09:18:21;;;;;;;5.78;1.25;;;;;;;;;;5032326;28;20044;-70
2021/04/26 09:20:47;;;;;;;6.60;0.98;;;;;;;;;;5029922;28;20025;-69
2021/04/26 09:23:15;;;;;;;5.82;1.50;;;;;;;;;;5023140;28;20388;-70
2021/04/26 09:25:42;;;;;;;3.78;0.70;;;;;;;;;;5028525;28;20033;-69
2021/04/26 09:28:11;;;;;;;5.65;0.90;;;;;;;;;;5029477;28;20033;-69
2021/04/26 09:30:41;;;;;;;3.47;1.10;;;;;;;;;;5029369;28;20398;-69
2021/04/26 09:33:34;;;;;;;3.17;1.10;;;;;;;;;;5028993;28;20021;-69
2021/04/26 09:36:22;;;;;;;8.05;0.98;;;;;;;;;;5027471;28;20041;-69
2021/04/26 09:38:52;;;;;;;2.88;0.90;;;;;;;;;;5025048;28;20168;-69
2021/04/26 09:41:29;;;;;;;3.97;0.90;;;;;;;;;;5021747;28;20030;-69
2021/04/26 09:44:01;;;;;;;3.45;0.70;;;;;;;;;;5023150;28;20049;-69
2021/04/26 09:46:46;;;;;;;4.50;0.90;;;;;;;;;;5026226;28;20079;-69
2021/04/26 09:49:18;;;;;;;4.85;1.10;;;;;;;;;;5023415;28;20029;-71
2021/04/26 09:51:50;;;;;;;3.53;0.95;;;;;;;;;;5025932;28;20037;-71
2021/04/26 09:54:16;;;;;;;4.55;1.35;;;;;;;;;;5020001;28;20045;-71
2021/04/26 09:56:46;;;;;;;4.47;1.55;;;;;;;;;;5023990;28;20030;-70
2021/04/26 09:59:14;;;;;;;4.50;1.02;;;;;;;;;;5026059;28;20030;-71
2021/04/26 10:01:41;;;;;;;4.00;0.90;;;;;;;;;;5024577;28;20446;-70
2021/04/26 10:04:10;;;;;;;6.18;1.35;;;;;;;;;;5025131;28;20025;-70
2021/04/26 10:06:36;;;;;;;2.97;0.93;;;;;;;;;;5023375;28;20079;-69
2021/04/26 10:09:04;;;;;;;4.40;0.80;;;;;;;;;;5027315;28;20437;-69
2021/04/26 10:11:31;;;;;;;5.70;1.50;;;;;;;;;;5021064;28;20506;-68
2021/04/26 10:14:06;;;;;;;5.88;1.13;;;;;;;;;;5015622;28;20072;-68
2021/04/26 10:16:53;;;;;;;4.47;1.08;;;;;;;;;;5015353;28;20029;-68
2021/04/26 10:19:27;;;;;;;6.43;1.10;;;;;;;;;;5012917;28;20036;-70
2021/04/26 10:21:55;;;;;;;4.38;1.13;;;;;;;;;;5008899;28;20620;-68
2021/04/26 10:24:22;;;;;;;6.18;1.50;;;;;;;;;;5011543;28;20055;-68
2021/04/26 10:26:49;;;;;;;4.47;1.15;;;;;;;;;;5003719;28;20037;-68
2021/04/26 10:29:18;;;;;;;6.78;1.10;;;;;;;;;;4990014;28;20036;-68
2021/04/26 10:31:59;;;;;;;4.25;1.10;;;;;;;;;;4990743;28;20427;-70
2021/04/26 10:34:26;;;;;;;4.10;1.10;;;;;;;;;;4992578;28;20030;-68
2021/04/26 10:37:00;;;;;;;4.47;1.15;;;;;;;;;;4995399;28;20034;-68
2021/04/26 10:39:30;;;;;;;3.08;1.02;;;;;;;;;;4990304;28;20418;-70
2021/04/26 10:41:59;;;;;;;6.63;0.95;;;;;;;;;;4992842;28;20026;-70
2021/04/26 10:44:40;;;;;;;6.55;1.38;;;;;;;;;;4997900;28;20026;-70
2021/04/26 10:47:26;;;;;;;3.38;1.15;;;;;;;;;;4994677;28;20041;-68
2021/04/26 10:50:01;;;;;;;3.70;1.02;;;;;;;;;;4998473;28;20483;-67
2021/04/26 10:52:30;;;;;;;4.40;1.10;;;;;;;;;;4998057;28;20022;-70
2021/04/26 10:55:16;;;;;;;8.15;1.60;;;;;;;;;;4995243;28;20037;-70
2021/04/26 10:57:45;;;;;;;6.78;1.33;;;;;;;;;;4986863;28;20049;-70
2021/04/26 11:00:25;;;;;;;6.03;1.15;;;;;;;;;;4989911;28;20018;-71
2021/04/26 11:02:52;;;;;;;4.82;0.80;;;;;;;;;;4999206;28;20025;-71
2021/04/26 11:05:22;;;;;;;5.32;1.23;;;;;;;;;;4994414;28;20034;-71
2021/04/26 11:07:57;;;;;;;3.40;1.05;;;;;;;;;;4989520;28;20034;-71
2021/04/26 11:10:30;;;;;;;3.10;1.25;;;;;;;;;;4991336;28;20029;-70
2021/04/26 11:13:17;;;;;;;4.35;1.33;;;;;;;;;;4997594;28;20056;-71
2021/04/26 11:15:43;;;;;;;4.82;1.08;;;;;;;;;;4991494;28;20109;-70
2021/04/26 11:18:30;;;;;;;4.03;1.02;;;;;;;;;;4996130;28;20475;-67
2021/04/26 11:20:56;;;;;;;3.70;1.33;;;;;;;;;;4990140;28;20030;-70
2021/04/26 11:23:41;;;;;;;4.57;1.70;;;;;;;;;;5001049;28;20041;-68
2021/04/26 11:26:17;;;;;;;2.63;0.90;;;;;;;;;;4990262;28;20023;-68
2021/04/26 11:29:02;;;;;;;6.03;1.30;;;;;;;;;;4989407;28;20026;-70
2021/04/26 11:31:43;;;;;;;3.40;1.35;;;;;;;;;;4990714;28;20033;-70
2021/04/26 11:34:09;;;;;;;5.63;1.52;;;;;;;;;;4993958;28;20029;-70
2021/04/26 11:36:37;;;;;;;5.32;1.38;;;;;;;;;;4993745;28;20022;-70
2021/04/26 11:39:05;;;;;;;8.88;1.92;;;;;;;;;;5000551;28;20026;-70
2021/04/26 11:41:40;;;;;;;5.93;1.70;;;;;;;;;;5002861;28;20033;-68
2021/04/26 11:44:06;;;;;;;5.70;1.10;;;;;;;;;;5003928;28;20025;-68
2021/04/26 11:46:34;;;;;;;5.18;1.15;;;;;;;;;;5006188;28;20029;-69
2021/04/26 11:49:35;;;;;;;2.80;1.17;;;;;;;;;;5016262;28;20473;-69
2021/04/26 11:52:10;;;;;;;2.75;0.82;;;;;;;;;;4982067;28;20523;-68
2021/04/26 11:54:37;;;;;;;6.22;1.40;;;;;;;;;;4995044;28;20125;-68
2021/04/26 11:57:19;;;;;;;5.30;1.10;;;;;;;;;;4995598;28;20399;-70
2021/04/26 12:00:05;;;;;;;7.70;1.80;;;;;;;;;;4988585;28;20072;-70
2021/04/26 12:02:31;;;;;;;4.28;0.82;;;;;;;;;;4993258;28;20037;-70
2021/04/26 12:04:58;;;;;;;7.03;1.30;;;;;;;;;;4991370;28;20542;-68
2021/04/26 12:07:24;;;;;;;5.75;1.60;;;;;;;;;;4999733;28;20582;-68
2021/04/26 12:09:54;;;;;;;2.28;0.98;;;;;;;;;;5003793;28;20033;-68
2021/04/26 12:12:25;;;;;;;3.58;0.88;;;;;;;;;;4990960;28;20116;-68
2021/04/26 12:14:55;;;;;;;4.68;1.35;;;;;;;;;;4991494;28;20088;-73
2021/04/26 12:17:21;;;;;;;;;;;;;;;;;;4990168;28;20809;-68
2021/04/26 12:19:48;;;;;;;5.82;1.10;;;;;;;;;;4992897;28;19945;-68
2021/04/26 12:22:14;;;;;;;3.83;1.02;;;;;;;;;;5003462;28;20060;-68
2021/04/26 12:24:41;;;;;;;7.18;1.30;;;;;;;;;;5000913;28;20450;-68
2021/04/26 12:27:08;;;;;;;4.60;1.13;;;;;;;;;;4997891;28;20026;-68
2021/04/26 12:29:34;;;;;;;6.43;1.10;;;;;;;;;;4994152;28;20808;-69
2021/04/26 12:32:09;;;;;;;4.10;1.60;;;;;;;;;;5002496;28;20475;-68
2021/04/26 12:34:54;;;;;;;3.00;1.50;;;;;;;;;;4993132;28;20212;-68
2021/04/26 12:37:21;;;;;;;3.58;0.80;;;;;;;;;;4998437;28;20017;-68
2021/04/26 12:39:48;;;;;;;7.63;1.48;;;;;;;;;;4996334;28;20859;-68
2021/04/26 12:42:15;;;;;;;3.88;1.00;;;;;;;;;;4994107;28;20022;-68
2021/04/26 12:44:44;;;;;;;2.95;1.00;;;;;;;;;;4999966;28;20034;-68
2021/04/26 12:47:17;;;;;;;6.88;1.52;;;;;;;;;;4998417;28;20026;-68
2021/04/26 12:49:43;;;;;;;7.82;1.42;;;;;;;;;;4997814;28;20108;-68
2021/04/26 12:52:16;;;;;;;6.45;1.10;;;;;;;;;;4993537;28;20105;-68
2021/04/26 12:55:01;;;;;;;3.97;1.20;;;;;;;;;;4996150;28;20022;-68
2021/04/26 12:57:27;;;;;;;3.22;1.15;;;;;;;;;;5005716;28;20022;-70
2021/04/26 12:59:53;;;;;;;3.33;0.90;;;;;;;;;;4991294;28;20023;-68
2021/04/26 13:02:20;;;;;;;5.72;0.85;;;;;;;;;;4990104;28;20026;-69
2021/04/26 13:04:46;;;;;;;5.25;1.45;;;;;;;;;;4991852;28;20026;-69
2021/04/26 13:07:12;;;;;;;4.55;1.10;;;;;;;;;;4991366;28;20046;-68
2021/04/26 13:09:38;;;;;;;5.47;1.60;;;;;;;;;;4992400;28;20587;-69
2021/04/26 13:12:04;;;;;;;9.40;1.10;;;;;;;;;;4994561;28;20916;-69
2021/04/26 13:14:35;;;;;;;2.00;0.77;;;;;;;;;;4992284;28;20531;-68
2021/04/26 13:17:09;;;;;;;5.85;1.17;;;;;;;;;;4989725;28;20603;-69
2021/04/26 13:19:35;;;;;;;2.03;0.75;;;;;;;;;;5003213;28;20987;-69
2021/04/26 13:22:01;;;;;;;3.00;0.43;;;;;;;;;;4995775;28;20034;-68
2021/04/26 13:24:33;;;;;;;2.72;0.68;;;;;;;;;;5004422;28;20026;-69
2021/04/26 13:27:04;;;;;;;3.60;1.00;;;;;;;;;;5009693;28;20030;-69
2021/04/26 13:29:31;;;;;;;3.75;0.82;;;;;;;;;;4998384;28;20041;-69
2021/04/26 13:31:58;;;;;;;4.80;0.85;;;;;;;;;;4996896;28;20030;-69
2021/04/26 13:34:25;;;;;;;2.63;0.82;;;;;;;;;;4996696;28;20036;-69
2021/04/26 13:36:51;;;;;;;3.38;0.80;;;;;;;;;;5008823;28;20025;-69
2021/04/26 13:39:18;;;;;;;6.25;1.00;;;;;;;;;;4994757;28;20115;-69
2021/04/26 13:41:44;;;;;;;5.28;1.30;;;;;;;;;;4988008;28;20085;-69
2021/04/26 13:44:10;;;;;;;3.70;0.63;;;;;;;;;;4994010;28;20369;-69
2021/04/26 13:46:37;;;;;;;4.72;1.23;;;;;;;;;;5000256;28;20489;-68
2021/04/26 13:49:03;;;;;;;5.50;0.85;;;;;;;;;;5005520;28;20108;-68
2021/04/26 13:51:29;;;;;;;3.33;1.23;;;;;;;;;;5006290;28;20083;-69
2021/04/26 13:53:55;;;;;;;3.08;0.80;;;;;;;;;;5007713;28;20030;-69
2021/04/26 13:56:21;;;;;;;4.18;1.10;;;;;;;;;;5000644;28;20030;-68
2021/04/26 13:58:48;;;;;;;4.20;0.75;;;;;;;;;;4996937;28;20019;-68
2021/04/26 14:01:14;;;;;;;4.93;0.90;;;;;;;;;;5005988;28;20379;-68
2021/04/26 14:03:40;;;;;;;2.10;0.90;;;;;;;;;;4999635;28;20605;-67
2021/04/26 14:06:06;;;;;;;4.90;1.05;;;;;;;;;;4998453;28;20032;-68
2021/04/26 14:08:33;;;;;;;6.80;0.80;;;;;;;;;;4998052;28;20030;-69
2021/04/26 14:10:59;;;;;;;3.45;0.77;;;;;;;;;;4997073;28;20041;-71
2021/04/26 14:13:25;;;;;;;5.22;1.13;;;;;;;;;;5001193;28;20034;-69
2021/04/26 14:15:51;;;;;;;8.20;1.10;;;;;;;;;;5005601;28;20026;-69
2021/04/26 14:18:17;;;;;;;3.20;1.20;;;;;;;;;;5015633;28;20088;-69
2021/04/26 14:20:43;;;;;;;3.97;1.13;;;;;;;;;;5007706;28;20459;-68
2021/04/26 14:23:12;;;;;;;4.35;0.93;;;;;;;;;;5001432;28;20030;-69
2021/04/26 14:25:39;;;;;;;5.78;1.05;;;;;;;;;;5022256;28;20021;-68
2021/04/26 14:28:10;;;;;;;3.35;1.35;;;;;;;;;;5003629;28;20473;-68
2021/04/26 14:30:36;;;;;;;4.13;0.95;;;;;;;;;;5006664;28;20013;-68
2021/04/26 14:33:02;;;;;;;5.55;1.20;;;;;;;;;;5005521;28;20129;-68
2021/04/26 14:35:28;;;;;;;4.30;1.02;;;;;;;;;;5008658;28;20480;-68
2021/04/26 14:37:54;;;;;;;2.35;0.90;;;;;;;;;;5003641;28;20030;-68
2021/04/26 14:40:20;;;;;;;5.35;1.13;;;;;;;;;;5007710;28;20601;-69
2021/04/26 14:42:46;;;;;;;4.28;0.98;;;;;;;;;;5014339;28;20026;-69
2021/04/26 14:45:12;;;;;;;5.75;1.20;;;;;;;;;;5007003;28;20040;-69
2021/04/26 14:47:38;;;;;;;5.55;1.10;;;;;;;;;;5008955;28;20025;-69
2021/04/26 14:50:05;;;;;;;6.78;1.10;;;;;;;;;;5005740;28;20030;-69